createdAt,value
2019-04-03T00:03:49.168Z,74.96
2019-04-03T00:07:51.049Z,74.91
2019-04-03T00:11:53.488Z,74.71
2019-04-03T00:15:56.357Z,74.60
2019-04-03T00:19:58.438Z,75.22
2019-04-03T00:24:00.356Z,74.89
2019-04-03T00:28:02.220Z,75.37
2019-04-03T00:32:04.687Z,75.53
2019-04-03T00:36:06.713Z,76.05
2019-04-03T00:40:09.418Z,78.73
2019-04-03T00:44:11.325Z,76.99
2019-04-03T00:48:13.206Z,76.51
2019-04-03T00:52:15.141Z,77.06
2019-04-03T00:56:18.020Z,77.75
2019-04-03T01:00:19.956Z,78.03
2019-04-03T01:04:21.876Z,78.24
2019-04-03T01:08:23.959Z,78.21
2019-04-03T01:12:25.850Z,78.18
2019-04-03T01:16:27.846Z,78.55
2019-04-03T01:20:29.758Z,78.68
2019-04-03T01:24:31.655Z,78.64
2019-04-03T01:28:33.539Z,78.50
2019-04-03T01:32:36.417Z,78.96
2019-04-03T01:36:38.329Z,78.76
2019-04-03T01:40:40.230Z,79.28
2019-04-03T01:44:42.121Z,79.24
2019-04-03T01:48:44.007Z,78.98
2019-04-03T01:52:45.924Z,79.10
2019-04-03T01:56:48.004Z,79.70
2019-04-03T02:00:50.132Z,80.00
2019-04-03T02:04:52.057Z,80.13
2019-04-03T02:08:53.957Z,80.18
2019-04-03T02:12:56.037Z,80.02
2019-04-03T02:16:58.025Z,80.39
2019-04-03T02:20:59.915Z,80.53
2019-04-03T02:25:02.281Z,80.45
2019-04-03T02:29:06.662Z,80.64
2019-04-03T02:33:08.449Z,80.35
2019-04-03T02:37:10.346Z,80.06
2019-04-03T02:41:12.421Z,80.04
2019-04-03T02:45:15.719Z,80.24
2019-04-03T02:49:17.600Z,80.02
2019-04-03T02:53:20.383Z,80.73
2019-04-03T02:57:22.349Z,80.83
2019-04-03T03:01:24.245Z,80.99
2019-04-03T03:05:28.102Z,80.81
2019-04-03T03:09:31.745Z,80.62
2019-04-03T03:13:35.247Z,80.70
2019-04-03T03:17:39.184Z,81.18
2019-04-03T03:21:43.890Z,81.46
2019-04-03T03:25:46.446Z,82.08
2019-04-03T03:29:48.978Z,82.19
2019-04-03T03:33:51.286Z,82.01
2019-04-03T03:37:54.147Z,81.88
2019-04-03T03:41:58.519Z,81.66
2019-04-03T03:46:01.504Z,81.59
2019-04-03T03:50:04.436Z,81.95
2019-04-03T03:54:06.827Z,82.24
2019-04-03T03:58:12.550Z,82.33
2019-04-03T04:02:13.832Z,82.23
2019-04-03T04:06:15.827Z,82.62
2019-04-03T04:10:17.716Z,82.70
2019-04-03T04:14:22.846Z,83.13
2019-04-03T04:18:25.832Z,83.39
2019-04-03T04:22:28.586Z,83.93
2019-04-03T04:26:31.795Z,83.63
2019-04-03T04:30:34.966Z,83.51
2019-04-03T04:34:37.175Z,83.32
2019-04-03T04:38:39.149Z,83.38
2019-04-03T04:42:41.056Z,83.65
2019-04-03T04:46:44.532Z,83.90
2019-04-03T04:50:46.642Z,83.56
2019-04-03T04:54:48.632Z,83.60
2019-04-03T04:58:50.527Z,83.84
2019-04-03T05:02:52.441Z,83.78
2019-04-03T05:06:54.345Z,83.74
2019-04-03T05:10:56.231Z,83.52
2019-04-03T05:14:58.150Z,83.38
2019-04-03T05:19:09.499Z,83.62
2019-04-03T05:23:04.092Z,83.86
2019-04-03T05:27:08.147Z,83.99
2019-04-03T05:31:09.848Z,84.13
2019-04-03T05:35:14.584Z,84.09
2019-04-03T05:39:15.463Z,84.34
2019-04-03T05:43:17.442Z,85.05
2019-04-03T05:47:19.440Z,84.61
2019-04-03T05:51:21.308Z,84.43
2019-04-03T05:55:23.384Z,84.39
2019-04-03T05:59:25.295Z,84.49
2019-04-03T06:03:38.822Z,84.25
2019-04-03T06:07:30.989Z,84.46
2019-04-03T06:11:33.177Z,84.23
2019-04-03T06:15:35.248Z,84.23
2019-04-03T06:19:39.739Z,83.99
2019-04-03T06:28:14.733Z,84.17
2019-04-03T06:32:17.053Z,84.00
2019-04-03T06:36:19.244Z,83.88
2019-04-03T06:40:21.133Z,83.59
2019-04-03T06:44:23.155Z,83.09
2019-04-03T06:48:26.081Z,82.27
2019-04-03T06:52:27.978Z,82.43
2019-04-03T06:56:29.910Z,81.20
2019-04-03T07:00:31.847Z,81.03
2019-04-03T07:04:33.751Z,80.17
2019-04-03T07:08:38.043Z,78.64
2019-04-03T07:12:40.276Z,78.06
2019-04-03T07:16:42.255Z,76.21
2019-04-03T07:20:44.162Z,76.47
2019-04-03T07:24:47.128Z,75.59
2019-04-03T07:28:49.115Z,75.46
2019-04-03T07:32:51.245Z,74.31
2019-04-03T07:36:54.164Z,72.53
2019-04-03T07:40:56.145Z,72.49
2019-04-03T07:44:58.072Z,72.62
2019-04-03T07:49:00.703Z,71.24
2019-04-03T07:53:02.788Z,71.25
2019-04-03T07:57:04.903Z,71.11
2019-04-03T08:01:09.860Z,70.24
2019-04-03T08:05:10.941Z,69.30
2019-04-03T08:09:12.866Z,69.42
2019-04-03T08:13:15.115Z,68.90
2019-04-03T08:17:19.038Z,68.53
2019-04-03T08:21:21.903Z,69.41
2019-04-03T08:25:24.001Z,67.86
2019-04-03T08:29:25.910Z,67.19
2019-04-03T08:33:28.246Z,67.07
2019-04-03T08:37:32.305Z,66.72
2019-04-03T08:41:36.924Z,65.45
2019-04-03T08:45:39.278Z,64.61
2019-04-03T08:49:41.600Z,64.02
2019-04-03T08:53:43.723Z,64.68
2019-04-03T08:57:46.836Z,62.12
2019-04-03T09:01:48.926Z,61.82
2019-04-03T09:05:52.010Z,62.09
2019-04-03T09:09:54.535Z,61.20
2019-04-03T09:13:56.462Z,60.41
2019-04-03T09:17:59.450Z,59.30
2019-04-03T09:22:01.342Z,57.44
2019-04-03T09:26:04.298Z,55.59
2019-04-03T09:30:10.662Z,55.79
2019-04-03T09:34:12.552Z,55.35
2019-04-03T09:38:14.478Z,55.19
2019-04-03T09:42:16.375Z,51.12
2019-04-03T09:46:18.285Z,50.25
2019-04-03T09:50:22.067Z,48.66
2019-04-03T09:54:24.079Z,48.73
2019-04-03T09:58:26.265Z,48.39
2019-04-03T10:02:28.189Z,48.98
2019-04-03T10:06:31.419Z,48.95
2019-04-03T10:10:33.662Z,49.15
2019-04-03T10:14:37.059Z,49.58
2019-04-03T10:18:41.162Z,47.13
2019-04-03T10:22:42.751Z,47.32
2019-04-03T10:26:44.843Z,46.27
2019-04-03T10:30:46.759Z,46.36
2019-04-03T10:34:50.035Z,45.14
2019-04-03T10:38:52.129Z,45.60
2019-04-03T10:42:54.245Z,43.54
2019-04-03T10:46:56.180Z,44.51
2019-04-03T10:50:58.104Z,42.29
2019-04-03T10:55:00.031Z,42.21
2019-04-03T10:59:11.062Z,43.15
2019-04-03T11:03:05.784Z,42.58
2019-04-03T11:07:07.907Z,42.35
2019-04-03T11:11:09.909Z,41.48
2019-04-03T11:15:13.932Z,40.98
2019-04-03T11:19:15.873Z,39.37
2019-04-03T11:23:18.095Z,40.05
2019-04-03T11:27:25.016Z,40.88
2019-04-03T11:31:28.250Z,40.74
2019-04-03T11:35:28.619Z,40.22
2019-04-03T11:39:30.538Z,39.36
2019-04-03T11:43:32.606Z,38.19
2019-04-03T11:47:34.734Z,38.81
2019-04-03T11:51:37.682Z,37.91
2019-04-03T11:55:41.331Z,38.81
2019-04-03T11:59:43.219Z,37.32
2019-04-03T12:03:45.266Z,36.82
2019-04-03T12:07:47.878Z,36.80
2019-04-03T12:11:50.190Z,36.27
2019-04-03T12:15:53.652Z,37.07
2019-04-03T12:19:55.859Z,35.67
2019-04-03T12:23:58.871Z,35.17
2019-04-03T12:28:02.046Z,34.03
2019-04-03T12:32:04.611Z,33.31
2019-04-03T12:36:08.792Z,31.69
2019-04-03T12:40:11.581Z,32.16
2019-04-03T12:44:13.548Z,30.66
2019-04-03T12:48:17.484Z,30.12
2019-04-03T12:52:19.239Z,28.60
2019-04-03T12:56:23.929Z,28.72
2019-04-03T13:00:25.898Z,28.45
2019-04-03T13:04:30.233Z,28.81
2019-04-03T13:08:31.661Z,29.88
2019-04-03T13:12:33.820Z,30.98
2019-04-03T13:16:35.741Z,31.71
2019-04-03T13:20:38.735Z,30.95
2019-04-03T13:24:43.382Z,29.75
2019-04-03T13:28:45.311Z,29.20
2019-04-03T13:32:57.646Z,28.40
2019-04-03T13:36:51.953Z,28.28
2019-04-03T13:40:54.313Z,27.97
2019-04-03T13:44:58.324Z,26.48
2019-04-03T13:49:00.383Z,27.49
2019-04-03T13:57:26.720Z,24.75
2019-04-03T14:01:29.007Z,26.12
2019-04-03T14:05:32.870Z,25.35
2019-04-03T14:09:34.981Z,25.96
2019-04-03T14:13:37.004Z,25.91
2019-04-03T14:17:39.199Z,26.79
2019-04-03T14:21:41.185Z,27.82
2019-04-03T14:25:43.163Z,28.57
2019-04-03T14:29:45.074Z,28.17
2019-04-03T14:33:47.306Z,28.99
2019-04-03T14:37:49.838Z,28.64
2019-04-03T14:41:54.326Z,28.46
2019-04-03T14:45:55.403Z,29.00
2019-04-03T14:49:57.302Z,29.78
2019-04-03T14:53:59.236Z,30.04
2019-04-03T14:58:01.933Z,31.05
2019-04-03T15:02:04.883Z,30.65
2019-04-03T15:06:06.941Z,31.63
2019-04-03T15:10:09.562Z,31.78
2019-04-03T15:14:11.704Z,32.34
2019-04-03T15:18:14.189Z,32.26
2019-04-03T15:22:16.465Z,32.25
2019-04-03T15:26:21.764Z,32.08
2019-04-03T15:30:24.885Z,31.72
2019-04-03T15:34:27.735Z,32.67
2019-04-03T15:38:30.075Z,32.17
2019-04-03T15:42:32.511Z,32.57
2019-04-03T15:46:34.489Z,32.47
2019-04-03T15:50:38.411Z,32.10
2019-04-03T15:54:40.175Z,32.53
2019-04-03T15:58:42.095Z,32.64
2019-04-03T16:02:47.145Z,32.68
2019-04-03T16:06:49.540Z,32.62
2019-04-03T16:10:51.666Z,33.62
2019-04-03T16:14:54.346Z,32.55
2019-04-03T16:18:57.306Z,32.80
2019-04-03T16:22:59.490Z,32.82
2019-04-03T16:27:01.670Z,33.38
2019-04-03T16:31:03.716Z,33.94
2019-04-03T16:35:08.262Z,34.49
2019-04-03T16:39:10.426Z,35.02
2019-04-03T16:43:12.691Z,35.25
2019-04-03T16:47:15.064Z,35.21
2019-04-03T16:51:16.973Z,35.92
2019-04-03T16:55:19.341Z,35.66
2019-04-03T16:59:21.250Z,35.79
2019-04-03T17:03:23.429Z,36.59
2019-04-03T17:07:25.370Z,36.52
2019-04-03T17:11:27.232Z,37.18
2019-04-03T17:15:29.135Z,36.63
2019-04-03T17:19:31.057Z,37.21
2019-04-03T17:23:32.973Z,37.85
2019-04-03T17:27:34.895Z,37.68
2019-04-03T17:31:36.792Z,38.12
2019-04-03T17:35:38.869Z,38.70
2019-04-03T17:39:41.884Z,38.45
2019-04-03T17:43:43.848Z,38.50
2019-04-03T17:47:45.788Z,38.54
2019-04-03T17:51:47.710Z,39.09
2019-04-03T17:55:49.683Z,40.03
2019-04-03T17:59:51.594Z,40.17
2019-04-03T18:03:54.485Z,41.26
2019-04-03T18:07:58.514Z,42.09
2019-04-03T18:12:00.101Z,42.66
2019-04-03T18:16:01.997Z,43.87
2019-04-03T18:20:05.457Z,44.61
2019-04-03T18:24:07.353Z,44.92
2019-04-03T18:28:10.336Z,45.54
2019-04-03T18:32:13.667Z,46.42
2019-04-03T18:36:16.889Z,46.71
2019-04-03T18:40:18.814Z,47.01
2019-04-03T18:44:22.355Z,47.74
2019-04-03T18:48:24.596Z,48.97
2019-04-03T18:52:26.526Z,49.59
2019-04-03T18:56:31.957Z,50.21
2019-04-03T19:00:33.193Z,50.97
2019-04-03T19:04:37.464Z,51.22
2019-04-03T19:08:38.710Z,51.24
2019-04-03T19:12:43.135Z,51.75
2019-04-03T19:16:47.854Z,52.08
2019-04-03T19:20:47.844Z,52.65
2019-04-03T19:24:49.768Z,52.90
2019-04-03T19:28:51.696Z,53.38
2019-04-03T19:32:54.647Z,53.82
2019-04-03T19:36:56.562Z,54.79
2019-04-03T19:40:58.465Z,55.28
2019-04-03T19:45:00.393Z,56.44
2019-04-03T19:49:02.322Z,56.68
2019-04-03T19:53:07.815Z,56.86
2019-04-03T19:57:08.789Z,56.88
2019-04-03T20:01:10.699Z,56.60
2019-04-03T20:05:13.032Z,56.46
2019-04-03T20:09:17.660Z,57.83
2019-04-03T20:13:18.738Z,57.75
2019-04-03T20:17:20.713Z,58.67
2019-04-03T20:21:22.639Z,64.79
2019-04-03T20:25:24.572Z,68.90
2019-04-03T20:29:28.142Z,70.15
2019-04-03T20:33:30.090Z,71.25
2019-04-03T20:37:31.983Z,72.44
2019-04-03T20:41:34.809Z,72.62
2019-04-03T20:45:38.132Z,73.37
2019-04-03T20:49:40.022Z,73.55
2019-04-03T20:53:41.912Z,74.97
2019-04-03T20:57:54.830Z,75.65
2019-04-03T21:01:47.452Z,76.29
2019-04-03T21:05:49.485Z,76.27
2019-04-03T21:09:51.427Z,77.31
2019-04-03T21:13:54.543Z,77.48
2019-04-03T21:17:56.446Z,78.53
2019-04-03T21:21:59.769Z,79.19
2019-04-03T21:26:02.204Z,79.42
2019-04-03T21:30:07.604Z,79.24
2019-04-03T21:34:09.491Z,79.31
2019-04-03T21:38:11.519Z,79.33
2019-04-03T21:42:14.403Z,79.49
2019-04-03T21:46:17.376Z,79.15
2019-04-03T21:50:20.018Z,79.07
2019-04-03T21:54:21.875Z,78.53
2019-04-03T21:58:23.771Z,77.90
2019-04-03T22:02:25.673Z,76.66
2019-04-03T22:06:27.861Z,76.11
2019-04-03T22:10:32.794Z,75.75
2019-04-03T22:14:33.405Z,75.58
2019-04-03T22:18:35.291Z,75.43
2019-04-03T22:22:38.158Z,75.38
2019-04-03T22:26:41.347Z,75.74
2019-04-03T22:30:43.333Z,76.57
2019-04-03T22:34:46.860Z,77.24
2019-04-03T22:38:48.742Z,77.35
2019-04-03T22:42:50.633Z,77.09
2019-04-03T22:46:54.116Z,77.14
2019-04-03T22:50:57.085Z,77.30
2019-04-03T22:54:58.950Z,76.92
2019-04-03T22:59:01.090Z,76.75
2019-04-03T23:03:03.489Z,76.61
2019-04-03T23:07:05.414Z,76.33
2019-04-03T23:11:07.301Z,76.46
2019-04-03T23:15:10.962Z,76.96
2019-04-03T23:19:12.846Z,77.19
2019-04-03T23:23:14.735Z,76.96
2019-04-03T23:27:16.636Z,77.02
2019-04-03T23:31:18.524Z,77.18
2019-04-03T23:35:21.184Z,77.28
2019-04-03T23:39:24.226Z,77.22
2019-04-03T23:43:26.122Z,77.45
2019-04-03T23:47:28.010Z,77.24
2019-04-03T23:51:29.983Z,77.52
2019-04-03T23:55:32.311Z,77.97
2019-04-03T23:59:34.213Z,78.25
